sensor_id;sensor_type;location;lat;lon;timestamp;temperature;humidity
70807;DHT22;58882;52.170;5.386;2022-09-13T00:02:22;24.40;47.20
70807;DHT22;58882;52.170;5.386;2022-09-13T00:05:02;24.40;47.20
70807;DHT22;58882;52.170;5.386;2022-09-13T00:07:49;24.40;47.20
70807;DHT22;58882;52.170;5.386;2022-09-13T00:10:29;24.40;47.40
70807;DHT22;58882;52.170;5.386;2022-09-13T00:13:16;24.40;47.40
70807;DHT22;58882;52.170;5.386;2022-09-13T00:15:56;24.40;47.40
70807;DHT22;58882;52.170;5.386;2022-09-13T00:18:44;24.40;47.40
70807;DHT22;58882;52.170;5.386;2022-09-13T00:21:25;24.40;47.40
70807;DHT22;58882;52.170;5.386;2022-09-13T00:24:12;24.40;47.30
70807;DHT22;58882;52.170;5.386;2022-09-13T00:26:52;24.30;47.30
70807;DHT22;58882;52.170;5.386;2022-09-13T00:29:46;24.30;47.30
70807;DHT22;58882;52.170;5.386;2022-09-13T00:32:26;24.30;47.40
70807;DHT22;58882;52.170;5.386;2022-09-13T00:35:13;24.30;47.40
70807;DHT22;58882;52.170;5.386;2022-09-13T00:37:53;24.30;47.50
70807;DHT22;58882;52.170;5.386;2022-09-13T00:40:40;24.30;47.50
70807;DHT22;58882;52.170;5.386;2022-09-13T00:43:50;24.30;47.70
70807;DHT22;58882;52.170;5.386;2022-09-13T00:46:49;24.30;47.90
70807;DHT22;58882;52.170;5.386;2022-09-13T00:52:18;24.20;47.90
70807;DHT22;58882;52.170;5.386;2022-09-13T00:55:26;24.20;48.00
70807;DHT22;58882;52.170;5.386;2022-09-13T00:58:20;24.20;48.10
70807;DHT22;58882;52.170;5.386;2022-09-13T01:01:02;24.20;48.40
70807;DHT22;58882;52.170;5.386;2022-09-13T01:03:50;24.10;48.60
70807;DHT22;58882;52.170;5.386;2022-09-13T01:06:32;24.10;48.80
70807;DHT22;58882;52.170;5.386;2022-09-13T01:09:20;24.10;48.70
70807;DHT22;58882;52.170;5.386;2022-09-13T01:12:13;24.00;48.50
70807;DHT22;58882;52.170;5.386;2022-09-13T01:15:03;24.10;48.70
70807;DHT22;58882;52.170;5.386;2022-09-13T01:17:44;24.00;48.90
70807;DHT22;58882;52.170;5.386;2022-09-13T01:30:15;24.00;48.90
70807;DHT22;58882;52.170;5.386;2022-09-13T01:33:20;24.00;49.20
70807;DHT22;58882;52.170;5.386;2022-09-13T01:39:07;23.90;49.50
70807;DHT22;58882;52.170;5.386;2022-09-13T01:54:19;23.80;49.90
70807;DHT22;58882;52.170;5.386;2022-09-13T01:57:42;23.80;50.00
70807;DHT22;58882;52.170;5.386;2022-09-13T02:00:26;23.80;50.10
70807;DHT22;58882;52.170;5.386;2022-09-13T02:03:27;23.80;50.20
70807;DHT22;58882;52.170;5.386;2022-09-13T02:06:08;23.70;50.50
70807;DHT22;58882;52.170;5.386;2022-09-13T02:09:09;23.70;50.60
70807;DHT22;58882;52.170;5.386;2022-09-13T02:11:57;23.70;50.60
70807;DHT22;58882;52.170;5.386;2022-09-13T02:15:02;23.70;50.70
70807;DHT22;58882;52.170;5.386;2022-09-13T02:17:51;23.70;51.00
70807;DHT22;58882;52.170;5.386;2022-09-13T02:20:49;23.70;51.30
70807;DHT22;58882;52.170;5.386;2022-09-13T02:23:35;23.70;51.40
70807;DHT22;58882;52.170;5.386;2022-09-13T02:26:24;23.70;51.40
70807;DHT22;58882;52.170;5.386;2022-09-13T02:29:23;23.60;51.30
70807;DHT22;58882;52.170;5.386;2022-09-13T02:32:26;23.60;51.40
70807;DHT22;58882;52.170;5.386;2022-09-13T02:35:20;23.60;52.50
70807;DHT22;58882;52.170;5.386;2022-09-13T02:38:04;23.60;51.30
70807;DHT22;58882;52.170;5.386;2022-09-13T02:41:04;23.60;51.70
70807;DHT22;58882;52.170;5.386;2022-09-13T02:43:51;23.50;52.00
70807;DHT22;58882;52.170;5.386;2022-09-13T02:50:01;23.50;52.50
70807;DHT22;58882;52.170;5.386;2022-09-13T03:02:05;23.40;52.70
70807;DHT22;58882;52.170;5.386;2022-09-13T03:04:53;23.40;53.00
70807;DHT22;58882;52.170;5.386;2022-09-13T03:07:34;23.40;52.80
70807;DHT22;58882;52.170;5.386;2022-09-13T03:10:21;23.40;53.00
70807;DHT22;58882;52.170;5.386;2022-09-13T03:13:15;23.40;53.10
70807;DHT22;58882;52.170;5.386;2022-09-13T03:19:47;23.30;53.30
70807;DHT22;58882;52.170;5.386;2022-09-13T03:32:13;23.30;53.70
70807;DHT22;58882;52.170;5.386;2022-09-13T03:35:29;23.30;53.80
70807;DHT22;58882;52.170;5.386;2022-09-13T03:38:27;23.30;53.80
70807;DHT22;58882;52.170;5.386;2022-09-13T03:41:16;23.30;53.90
70807;DHT22;58882;52.170;5.386;2022-09-13T03:44:08;23.30;54.00
70807;DHT22;58882;52.170;5.386;2022-09-13T03:46:44;23.20;54.10
70807;DHT22;58882;52.170;5.386;2022-09-13T03:49:39;23.20;54.10
70807;DHT22;58882;52.170;5.386;2022-09-13T03:52:13;23.20;54.10
70807;DHT22;58882;52.170;5.386;2022-09-13T03:55:07;23.20;54.10
70807;DHT22;58882;52.170;5.386;2022-09-13T03:57:40;23.30;54.20
70807;DHT22;58882;52.170;5.386;2022-09-13T04:00:34;23.20;54.20
70807;DHT22;58882;52.170;5.386;2022-09-13T04:03:14;23.20;54.20
70807;DHT22;58882;52.170;5.386;2022-09-13T04:06:01;23.30;54.20
70807;DHT22;58882;52.170;5.386;2022-09-13T04:08:41;23.30;54.20
70807;DHT22;58882;52.170;5.386;2022-09-13T04:11:29;23.30;54.10
70807;DHT22;58882;52.170;5.386;2022-09-13T04:14:11;23.20;54.20
70807;DHT22;58882;52.170;5.386;2022-09-13T04:16:58;23.30;54.10
70807;DHT22;58882;52.170;5.386;2022-09-13T04:19:38;23.30;54.10
70807;DHT22;58882;52.170;5.386;2022-09-13T04:22:26;23.30;54.10
70807;DHT22;58882;52.170;5.386;2022-09-13T04:25:13;23.30;54.10
70807;DHT22;58882;52.170;5.386;2022-09-13T04:28:07;23.20;54.10
70807;DHT22;58882;52.170;5.386;2022-09-13T04:30:48;23.30;54.10
70807;DHT22;58882;52.170;5.386;2022-09-13T04:33:36;23.20;54.00
70807;DHT22;58882;52.170;5.386;2022-09-13T04:36:16;23.20;54.30
70807;DHT22;58882;52.170;5.386;2022-09-13T04:39:03;23.20;54.30
70807;DHT22;58882;52.170;5.386;2022-09-13T04:41:44;23.20;54.40
70807;DHT22;58882;52.170;5.386;2022-09-13T04:44:33;23.20;54.40
70807;DHT22;58882;52.170;5.386;2022-09-13T04:47:13;23.10;54.50
70807;DHT22;58882;52.170;5.386;2022-09-13T04:50:01;23.10;54.60
70807;DHT22;58882;52.170;5.386;2022-09-13T04:52:41;23.10;54.80
70807;DHT22;58882;52.170;5.386;2022-09-13T04:55:35;23.10;54.90
70807;DHT22;58882;52.170;5.386;2022-09-13T04:58:09;23.00;55.00
70807;DHT22;58882;52.170;5.386;2022-09-13T05:01:04;23.00;56.00
70807;DHT22;58882;52.170;5.386;2022-09-13T05:03:38;23.00;55.00
70807;DHT22;58882;52.170;5.386;2022-09-13T05:06:32;23.00;55.00
70807;DHT22;58882;52.170;5.386;2022-09-13T05:09:13;23.00;55.10
70807;DHT22;58882;52.170;5.386;2022-09-13T05:12:00;23.00;55.10
70807;DHT22;58882;52.170;5.386;2022-09-13T05:14:33;23.00;55.20
70807;DHT22;58882;52.170;5.386;2022-09-13T05:17:29;23.00;55.10
70807;DHT22;58882;52.170;5.386;2022-09-13T05:20:02;23.00;55.40
70807;DHT22;58882;52.170;5.386;2022-09-13T05:22:57;23.00;55.30
70807;DHT22;58882;52.170;5.386;2022-09-13T05:25:44;23.00;55.40
70807;DHT22;58882;52.170;5.386;2022-09-13T05:28:26;23.00;55.50
70807;DHT22;58882;52.170;5.386;2022-09-13T05:31:16;23.00;55.40
70807;DHT22;58882;52.170;5.386;2022-09-13T05:34:13;23.00;55.50
70807;DHT22;58882;52.170;5.386;2022-09-13T05:36:54;23.10;55.60
70807;DHT22;58882;52.170;5.386;2022-09-13T05:39:41;23.00;55.40
70807;DHT22;58882;52.170;5.386;2022-09-13T05:42:41;23.00;55.50
70807;DHT22;58882;52.170;5.386;2022-09-13T05:45:28;23.00;55.50
70807;DHT22;58882;52.170;5.386;2022-09-13T05:48:08;23.00;55.50
70807;DHT22;58882;52.170;5.386;2022-09-13T05:51:19;23.00;55.40
70807;DHT22;58882;52.170;5.386;2022-09-13T05:53:53;23.10;55.40
70807;DHT22;58882;52.170;5.386;2022-09-13T05:56:48;23.10;55.30
70807;DHT22;58882;52.170;5.386;2022-09-13T05:59:29;23.10;55.30
70807;DHT22;58882;52.170;5.386;2022-09-13T06:02:17;23.20;55.30
70807;DHT22;58882;52.170;5.386;2022-09-13T06:05:44;23.20;54.40
70807;DHT22;58882;52.170;5.386;2022-09-13T06:08:38;23.20;55.20
70807;DHT22;58882;52.170;5.386;2022-09-13T06:11:13;23.30;55.10
70807;DHT22;58882;52.170;5.386;2022-09-13T06:14:08;23.40;54.90
70807;DHT22;58882;52.170;5.386;2022-09-13T06:16:41;23.40;54.80
70807;DHT22;58882;52.170;5.386;2022-09-13T06:19:35;23.50;54.60
70807;DHT22;58882;52.170;5.386;2022-09-13T06:22:15;23.50;54.50
70807;DHT22;58882;52.170;5.386;2022-09-13T06:25:02;23.60;54.40
70807;DHT22;58882;52.170;5.386;2022-09-13T06:27:42;23.60;54.30
70807;DHT22;58882;52.170;5.386;2022-09-13T06:30:29;23.60;54.10
70807;DHT22;58882;52.170;5.386;2022-09-13T06:33:09;23.70;54.20
70807;DHT22;58882;52.170;5.386;2022-09-13T06:36:05;23.70;54.00
70807;DHT22;58882;52.170;5.386;2022-09-13T06:38:52;23.70;54.00
70807;DHT22;58882;52.170;5.386;2022-09-13T06:41:39;23.70;53.90
70807;DHT22;58882;52.170;5.386;2022-09-13T06:44:12;23.70;53.90
70807;DHT22;58882;52.170;5.386;2022-09-13T06:47:06;23.70;54.00
70807;DHT22;58882;52.170;5.386;2022-09-13T06:49:46;23.70;54.10
70807;DHT22;58882;52.170;5.386;2022-09-13T06:52:33;23.70;54.30
70807;DHT22;58882;52.170;5.386;2022-09-13T06:55:06;23.70;54.30
70807;DHT22;58882;52.170;5.386;2022-09-13T06:58:00;23.70;54.50
70807;DHT22;58882;52.170;5.386;2022-09-13T07:00:40;23.70;55.40
70807;DHT22;58882;52.170;5.386;2022-09-13T07:03:31;23.70;54.50
70807;DHT22;58882;52.170;5.386;2022-09-13T07:06:24;23.70;54.60
70807;DHT22;58882;52.170;5.386;2022-09-13T07:09:06;23.70;54.50
70807;DHT22;58882;52.170;5.386;2022-09-13T07:11:56;23.70;54.40
70807;DHT22;58882;52.170;5.386;2022-09-13T07:14:35;23.80;54.40
70807;DHT22;58882;52.170;5.386;2022-09-13T07:17:22;23.80;54.20
70807;DHT22;58882;52.170;5.386;2022-09-13T07:20:03;23.80;54.10
70807;DHT22;58882;52.170;5.386;2022-09-13T07:22:57;23.80;54.10
70807;DHT22;58882;52.170;5.386;2022-09-13T07:25:37;23.90;54.20
70807;DHT22;58882;52.170;5.386;2022-09-13T07:28:24;23.90;53.90
70807;DHT22;58882;52.170;5.386;2022-09-13T07:31:08;23.90;53.80
70807;DHT22;58882;52.170;5.386;2022-09-13T07:33:57;24.00;53.90
70807;DHT22;58882;52.170;5.386;2022-09-13T07:36:37;24.00;53.80
70807;DHT22;58882;52.170;5.386;2022-09-13T07:39:32;24.10;53.80
70807;DHT22;58882;52.170;5.386;2022-09-13T07:42:12;24.10;53.80
70807;DHT22;58882;52.170;5.386;2022-09-13T07:44:59;24.20;53.80
70807;DHT22;58882;52.170;5.386;2022-09-13T07:47:39;24.20;53.90
70807;DHT22;58882;52.170;5.386;2022-09-13T07:50:26;24.20;53.90
70807;DHT22;58882;52.170;5.386;2022-09-13T07:53:06;24.20;53.80
70807;DHT22;58882;52.170;5.386;2022-09-13T07:56:11;24.30;53.70
70807;DHT22;58882;52.170;5.386;2022-09-13T07:58:51;24.30;53.60
70807;DHT22;58882;52.170;5.386;2022-09-13T08:01:47;24.30;53.60
70807;DHT22;58882;52.170;5.386;2022-09-13T08:04:34;24.40;53.50
70807;DHT22;58882;52.170;5.386;2022-09-13T08:07:28;24.50;53.30
70807;DHT22;58882;52.170;5.386;2022-09-13T08:10:08;24.50;53.20
70807;DHT22;58882;52.170;5.386;2022-09-13T08:12:55;24.70;54.10
70807;DHT22;58882;52.170;5.386;2022-09-13T08:15:29;24.70;53.10
70807;DHT22;58882;52.170;5.386;2022-09-13T08:18:23;24.80;52.80
70807;DHT22;58882;52.170;5.386;2022-09-13T08:21:03;24.80;52.80
70807;DHT22;58882;52.170;5.386;2022-09-13T08:23:54;24.80;52.80
70807;DHT22;58882;52.170;5.386;2022-09-13T08:26:29;24.80;52.90
70807;DHT22;58882;52.170;5.386;2022-09-13T08:29:23;24.80;53.00
70807;DHT22;58882;52.170;5.386;2022-09-13T08:31:57;24.80;53.00
70807;DHT22;58882;52.170;5.386;2022-09-13T08:34:51;25.00;52.80
70807;DHT22;58882;52.170;5.386;2022-09-13T08:37:31;25.10;52.60
70807;DHT22;58882;52.170;5.386;2022-09-13T08:40:21;25.10;52.40
70807;DHT22;58882;52.170;5.386;2022-09-13T08:46:25;25.50;51.90
70807;DHT22;58882;52.170;5.386;2022-09-13T08:49:41;25.90;52.30
70807;DHT22;58882;52.170;5.386;2022-09-13T08:55:48;26.60;50.00
70807;DHT22;58882;52.170;5.386;2022-09-13T09:01:57;27.30;48.30
70807;DHT22;58882;52.170;5.386;2022-09-13T09:07:47;27.40;47.20
70807;DHT22;58882;52.170;5.386;2022-09-13T09:10:51;27.30;47.20
70807;DHT22;58882;52.170;5.386;2022-09-13T09:13:30;27.20;47.40
70807;DHT22;58882;52.170;5.386;2022-09-13T09:16:40;27.10;47.40
70807;DHT22;58882;52.170;5.386;2022-09-13T09:19:19;27.00;47.60
70807;DHT22;58882;52.170;5.386;2022-09-13T09:22:18;26.90;47.70
70807;DHT22;58882;52.170;5.386;2022-09-13T09:24:58;26.80;47.90
70807;DHT22;58882;52.170;5.386;2022-09-13T09:27:46;26.60;48.10
70807;DHT22;58882;52.170;5.386;2022-09-13T09:30:19;26.60;48.40
70807;DHT22;58882;52.170;5.386;2022-09-13T09:36:38;26.40;48.60
70807;DHT22;58882;52.170;5.386;2022-09-13T09:39:33;26.30;48.70
70807;DHT22;58882;52.170;5.386;2022-09-13T09:42:15;26.50;48.70
70807;DHT22;58882;52.170;5.386;2022-09-13T09:45:26;26.70;49.20
70807;DHT22;58882;52.170;5.386;2022-09-13T09:48:21;27.00;47.50
70807;DHT22;58882;52.170;5.386;2022-09-13T09:50:59;27.30;47.30
70807;DHT22;58882;52.170;5.386;2022-09-13T09:54:00;27.40;46.60
70807;DHT22;58882;52.170;5.386;2022-09-13T09:56:52;27.30;46.40
70807;DHT22;58882;52.170;5.386;2022-09-13T09:59:40;27.50;46.30
70807;DHT22;58882;52.170;5.386;2022-09-13T10:02:20;27.60;46.00
70807;DHT22;58882;52.170;5.386;2022-09-13T10:05:07;27.80;45.50
70807;DHT22;58882;52.170;5.386;2022-09-13T10:08:04;27.80;45.20
70807;DHT22;58882;52.170;5.386;2022-09-13T10:10:52;27.80;45.20
70807;DHT22;58882;52.170;5.386;2022-09-13T10:14:01;27.90;45.10
70807;DHT22;58882;52.170;5.386;2022-09-13T10:16:43;28.10;44.80
70807;DHT22;58882;52.170;5.386;2022-09-13T10:19:32;28.10;44.50
70807;DHT22;58882;52.170;5.386;2022-09-13T10:22:12;28.00;44.60
70807;DHT22;58882;52.170;5.386;2022-09-13T10:25:23;27.90;44.60
70807;DHT22;58882;52.170;5.386;2022-09-13T10:28:04;28.00;44.60
70807;DHT22;58882;52.170;5.386;2022-09-13T10:31:09;28.00;44.40
70807;DHT22;58882;52.170;5.386;2022-09-13T10:36:37;27.90;44.70
70807;DHT22;58882;52.170;5.386;2022-09-13T10:39:27;27.80;44.70
70807;DHT22;58882;52.170;5.386;2022-09-13T10:42:20;28.00;44.50
70807;DHT22;58882;52.170;5.386;2022-09-13T10:45:04;28.20;44.00
70807;DHT22;58882;52.170;5.386;2022-09-13T10:48:13;28.30;43.70
70807;DHT22;58882;52.170;5.386;2022-09-13T10:51:51;28.30;43.40
70807;DHT22;58882;52.170;5.386;2022-09-13T10:54:22;28.20;43.30
70807;DHT22;58882;52.170;5.386;2022-09-13T10:57:33;28.10;43.70
70807;DHT22;58882;52.170;5.386;2022-09-13T11:04:01;28.00;44.00
70807;DHT22;58882;52.170;5.386;2022-09-13T11:06:53;28.00;44.00
70807;DHT22;58882;52.170;5.386;2022-09-13T11:12:49;27.90;44.80
70807;DHT22;58882;52.170;5.386;2022-09-13T11:15:42;27.90;43.90
70807;DHT22;58882;52.170;5.386;2022-09-13T11:18:48;27.90;44.00
70807;DHT22;58882;52.170;5.386;2022-09-13T11:25:26;27.80;44.10
70807;DHT22;58882;52.170;5.386;2022-09-13T11:31:41;27.70;44.10
70807;DHT22;58882;52.170;5.386;2022-09-13T11:34:48;27.70;44.10
70807;DHT22;58882;52.170;5.386;2022-09-13T11:56:32;27.60;43.80
70807;DHT22;58882;52.170;5.386;2022-09-13T12:06:04;27.70;43.60
70807;DHT22;58882;52.170;5.386;2022-09-13T12:08:49;27.90;43.10
70807;DHT22;58882;52.170;5.386;2022-09-13T12:11:43;27.90;43.10
70807;DHT22;58882;52.170;5.386;2022-09-13T12:14:27;28.00;43.10
70807;DHT22;58882;52.170;5.386;2022-09-13T12:17:41;28.00;42.60
70807;DHT22;58882;52.170;5.386;2022-09-13T12:20:36;28.10;42.50
70807;DHT22;58882;52.170;5.386;2022-09-13T12:23:34;28.30;42.30
70807;DHT22;58882;52.170;5.386;2022-09-13T12:29:19;28.40;41.80
70807;DHT22;58882;52.170;5.386;2022-09-13T12:32:05;28.50;41.70
70807;DHT22;58882;52.170;5.386;2022-09-13T12:41:44;28.70;41.30
70807;DHT22;58882;52.170;5.386;2022-09-13T12:57:02;28.70;40.50
70807;DHT22;58882;52.170;5.386;2022-09-13T13:03:04;28.70;40.30
70807;DHT22;58882;52.170;5.386;2022-09-13T13:06:09;28.80;40.30
70807;DHT22;58882;52.170;5.386;2022-09-13T13:12:35;28.70;40.50
70807;DHT22;58882;52.170;5.386;2022-09-13T13:18:27;28.60;40.40
70807;DHT22;58882;52.170;5.386;2022-09-13T13:27:35;28.40;40.50
70807;DHT22;58882;52.170;5.386;2022-09-13T13:30:40;28.40;40.50
70807;DHT22;58882;52.170;5.386;2022-09-13T13:33:50;28.30;40.50
70807;DHT22;58882;52.170;5.386;2022-09-13T13:36:56;28.30;40.70
70807;DHT22;58882;52.170;5.386;2022-09-13T13:39:45;28.20;40.60
70807;DHT22;58882;52.170;5.386;2022-09-13T13:42:23;28.20;40.60
70807;DHT22;58882;52.170;5.386;2022-09-13T13:45:26;28.10;40.60
70807;DHT22;58882;52.170;5.386;2022-09-13T13:48:08;28.10;40.80
70807;DHT22;58882;52.170;5.386;2022-09-13T13:53:54;28.00;40.90
70807;DHT22;58882;52.170;5.386;2022-09-13T13:56:47;27.90;40.80
70807;DHT22;58882;52.170;5.386;2022-09-13T13:59:31;27.90;40.80
70807;DHT22;58882;52.170;5.386;2022-09-13T14:02:22;27.90;40.90
70807;DHT22;58882;52.170;5.386;2022-09-13T14:08:24;27.80;40.90
70807;DHT22;58882;52.170;5.386;2022-09-13T14:11:35;27.70;40.80
70807;DHT22;58882;52.170;5.386;2022-09-13T14:17:52;27.70;40.90
70807;DHT22;58882;52.170;5.386;2022-09-13T14:20:34;27.60;40.90
70807;DHT22;58882;52.170;5.386;2022-09-13T14:23:21;27.60;40.90
70807;DHT22;58882;52.170;5.386;2022-09-13T14:26:03;27.60;40.90
70807;DHT22;58882;52.170;5.386;2022-09-13T14:28:51;27.60;40.90
70807;DHT22;58882;52.170;5.386;2022-09-13T14:31:31;27.50;40.70
70807;DHT22;58882;52.170;5.386;2022-09-13T14:34:30;27.60;41.80
70807;DHT22;58882;52.170;5.386;2022-09-13T14:37:18;27.50;40.70
70807;DHT22;58882;52.170;5.386;2022-09-13T14:40:14;27.50;40.50
70807;DHT22;58882;52.170;5.386;2022-09-13T14:42:54;27.40;40.50
70807;DHT22;58882;52.170;5.386;2022-09-13T14:45:42;27.40;40.50
70807;DHT22;58882;52.170;5.386;2022-09-13T14:49:01;27.40;40.60
70807;DHT22;58882;52.170;5.386;2022-09-13T14:51:48;27.40;40.50
70807;DHT22;58882;52.170;5.386;2022-09-13T14:54:44;27.40;40.60
70807;DHT22;58882;52.170;5.386;2022-09-13T14:57:45;27.30;40.70
70807;DHT22;58882;52.170;5.386;2022-09-13T15:00:22;27.30;40.60
70807;DHT22;58882;52.170;5.386;2022-09-13T15:03:18;27.20;40.60
70807;DHT22;58882;52.170;5.386;2022-09-13T15:06:05;27.20;40.70
70807;DHT22;58882;52.170;5.386;2022-09-13T15:09:14;27.10;40.50
70807;DHT22;58882;52.170;5.386;2022-09-13T15:11:59;27.10;40.60
70807;DHT22;58882;52.170;5.386;2022-09-13T15:14:46;27.00;40.20
70807;DHT22;58882;52.170;5.386;2022-09-13T15:17:27;27.00;40.50
70807;DHT22;58882;52.170;5.386;2022-09-13T15:20:23;26.90;40.60
70807;DHT22;58882;52.170;5.386;2022-09-13T15:23:27;26.90;40.50
70807;DHT22;58882;52.170;5.386;2022-09-13T15:28:58;26.80;40.60
70807;DHT22;58882;52.170;5.386;2022-09-13T15:31:39;26.80;40.70
70807;DHT22;58882;52.170;5.386;2022-09-13T15:34:26;26.80;40.80
70807;DHT22;58882;52.170;5.386;2022-09-13T15:37:12;26.70;40.90
70807;DHT22;58882;52.170;5.386;2022-09-13T15:40:11;26.70;40.80
70807;DHT22;58882;52.170;5.386;2022-09-13T15:42:51;26.70;40.90
70807;DHT22;58882;52.170;5.386;2022-09-13T15:45:38;26.60;41.00
70807;DHT22;58882;52.170;5.386;2022-09-13T15:48:22;26.60;41.00
70807;DHT22;58882;52.170;5.386;2022-09-13T15:51:17;26.60;41.10
70807;DHT22;58882;52.170;5.386;2022-09-13T15:53:57;26.60;41.30
70807;DHT22;58882;52.170;5.386;2022-09-13T15:56:45;26.50;41.30
70807;DHT22;58882;52.170;5.386;2022-09-13T15:59:20;26.60;41.40
70807;DHT22;58882;52.170;5.386;2022-09-13T16:02:18;26.50;41.40
70807;DHT22;58882;52.170;5.386;2022-09-13T16:04:58;26.50;41.50
70807;DHT22;58882;52.170;5.386;2022-09-13T16:07:47;26.50;41.70
70807;DHT22;58882;52.170;5.386;2022-09-13T16:10:27;26.50;41.70
70807;DHT22;58882;52.170;5.386;2022-09-13T16:13:21;26.40;41.60
70807;DHT22;58882;52.170;5.386;2022-09-13T16:15:55;26.40;41.70
70807;DHT22;58882;52.170;5.386;2022-09-13T16:18:50;26.40;41.70
70807;DHT22;58882;52.170;5.386;2022-09-13T16:21:30;26.40;41.80
70807;DHT22;58882;52.170;5.386;2022-09-13T16:24:17;26.40;41.80
70807;DHT22;58882;52.170;5.386;2022-09-13T16:27:00;26.30;41.80
70807;DHT22;58882;52.170;5.386;2022-09-13T16:29:47;26.30;41.90
70807;DHT22;58882;52.170;5.386;2022-09-13T16:32:27;26.30;41.90
70807;DHT22;58882;52.170;5.386;2022-09-13T16:35:14;26.30;42.00
70807;DHT22;58882;52.170;5.386;2022-09-13T16:37:48;26.30;42.00
70807;DHT22;58882;52.170;5.386;2022-09-13T16:40:43;26.20;41.80
70807;DHT22;58882;52.170;5.386;2022-09-13T16:43:22;26.20;41.80
70807;DHT22;58882;52.170;5.386;2022-09-13T16:46:10;26.20;41.80
70807;DHT22;58882;52.170;5.386;2022-09-13T16:48:53;26.20;41.80
70807;DHT22;58882;52.170;5.386;2022-09-13T16:51:40;26.20;41.80
70807;DHT22;58882;52.170;5.386;2022-09-13T16:54:20;26.20;41.80
70807;DHT22;58882;52.170;5.386;2022-09-13T16:57:08;26.10;41.80
70807;DHT22;58882;52.170;5.386;2022-09-13T16:59:49;26.10;41.80
70807;DHT22;58882;52.170;5.386;2022-09-13T17:02:37;26.10;41.80
70807;DHT22;58882;52.170;5.386;2022-09-13T17:05:24;26.10;42.00
70807;DHT22;58882;52.170;5.386;2022-09-13T17:08:18;26.00;42.00
70807;DHT22;58882;52.170;5.386;2022-09-13T17:10:59;26.00;42.00
70807;DHT22;58882;52.170;5.386;2022-09-13T17:13:46;26.00;42.10
70807;DHT22;58882;52.170;5.386;2022-09-13T17:16:35;25.90;42.10
70807;DHT22;58882;52.170;5.386;2022-09-13T17:19:29;25.90;42.10
70807;DHT22;58882;52.170;5.386;2022-09-13T17:22:12;25.90;41.90
70807;DHT22;58882;52.170;5.386;2022-09-13T17:24:59;25.90;42.10
70807;DHT22;58882;52.170;5.386;2022-09-13T17:27:40;25.90;42.30
70807;DHT22;58882;52.170;5.386;2022-09-13T17:30:34;25.80;42.20
70807;DHT22;58882;52.170;5.386;2022-09-13T17:33:08;25.80;42.30
70807;DHT22;58882;52.170;5.386;2022-09-13T17:36:05;25.80;42.50
70807;DHT22;58882;52.170;5.386;2022-09-13T17:38:47;25.70;42.60
70807;DHT22;58882;52.170;5.386;2022-09-13T17:41:33;25.70;42.60
70807;DHT22;58882;52.170;5.386;2022-09-13T17:44:13;25.70;42.70
70807;DHT22;58882;52.170;5.386;2022-09-13T17:47:07;25.70;42.70
70807;DHT22;58882;52.170;5.386;2022-09-13T17:49:47;25.60;42.60
70807;DHT22;58882;52.170;5.386;2022-09-13T17:52:34;25.60;42.60
70807;DHT22;58882;52.170;5.386;2022-09-13T17:55:14;25.60;42.60
70807;DHT22;58882;52.170;5.386;2022-09-13T17:58:08;25.50;42.60
70807;DHT22;58882;52.170;5.386;2022-09-13T18:00:48;25.50;42.60
70807;DHT22;58882;52.170;5.386;2022-09-13T18:03:36;25.50;42.40
70807;DHT22;58882;52.170;5.386;2022-09-13T18:06:17;25.50;42.60
70807;DHT22;58882;52.170;5.386;2022-09-13T18:09:13;25.50;42.70
70807;DHT22;58882;52.170;5.386;2022-09-13T18:11:53;25.40;42.60
70807;DHT22;58882;52.170;5.386;2022-09-13T18:14:40;25.40;42.70
70807;DHT22;58882;52.170;5.386;2022-09-13T18:17:20;25.40;42.80
70807;DHT22;58882;52.170;5.386;2022-09-13T18:20:14;25.30;42.80
70807;DHT22;58882;52.170;5.386;2022-09-13T18:22:47;25.30;42.90
70807;DHT22;58882;52.170;5.386;2022-09-13T18:25:41;25.30;43.00
70807;DHT22;58882;52.170;5.386;2022-09-13T18:28:21;25.30;43.10
70807;DHT22;58882;52.170;5.386;2022-09-13T18:31:12;25.30;43.20
70807;DHT22;58882;52.170;5.386;2022-09-13T18:34:02;25.30;43.20
70807;DHT22;58882;52.170;5.386;2022-09-13T18:36:49;25.20;43.10
70807;DHT22;58882;52.170;5.386;2022-09-13T18:39:29;25.20;43.30
70807;DHT22;58882;52.170;5.386;2022-09-13T18:42:17;25.20;43.30
70807;DHT22;58882;52.170;5.386;2022-09-13T18:44:57;25.20;43.40
70807;DHT22;58882;52.170;5.386;2022-09-13T18:47:44;25.10;43.40
70807;DHT22;58882;52.170;5.386;2022-09-13T18:50:24;25.10;43.60
70807;DHT22;58882;52.170;5.386;2022-09-13T18:53:11;25.10;43.40
70807;DHT22;58882;52.170;5.386;2022-09-13T18:55:52;25.00;43.40
70807;DHT22;58882;52.170;5.386;2022-09-13T18:58:46;25.00;43.60
70807;DHT22;58882;52.170;5.386;2022-09-13T19:01:35;25.00;43.70
70807;DHT22;58882;52.170;5.386;2022-09-13T19:04:24;25.00;43.70
70807;DHT22;58882;52.170;5.386;2022-09-13T19:07:19;25.00;43.80
70807;DHT22;58882;52.170;5.386;2022-09-13T19:10:13;24.90;43.60
70807;DHT22;58882;52.170;5.386;2022-09-13T19:12:53;24.90;43.70
70807;DHT22;58882;52.170;5.386;2022-09-13T19:15:40;24.90;43.80
70807;DHT22;58882;52.170;5.386;2022-09-13T19:18:20;24.90;43.80
70807;DHT22;58882;52.170;5.386;2022-09-13T19:21:19;24.90;43.80
70807;DHT22;58882;52.170;5.386;2022-09-13T19:24:00;24.90;44.90
70807;DHT22;58882;52.170;5.386;2022-09-13T19:26:56;24.90;43.70
70807;DHT22;58882;52.170;5.386;2022-09-13T19:29:36;24.80;43.70
70807;DHT22;58882;52.170;5.386;2022-09-13T19:32:23;24.80;43.80
70807;DHT22;58882;52.170;5.386;2022-09-13T19:35:04;24.70;43.80
70807;DHT22;58882;52.170;5.386;2022-09-13T19:37:50;24.70;44.00
70807;DHT22;58882;52.170;5.386;2022-09-13T19:40:30;24.70;44.00
70807;DHT22;58882;52.170;5.386;2022-09-13T19:43:17;24.70;43.90
70807;DHT22;58882;52.170;5.386;2022-09-13T19:46:09;24.70;44.00
70807;DHT22;58882;52.170;5.386;2022-09-13T19:49:05;24.70;44.00
70807;DHT22;58882;52.170;5.386;2022-09-13T19:51:39;24.60;45.00
70807;DHT22;58882;52.170;5.386;2022-09-13T19:54:33;24.60;44.00
70807;DHT22;58882;52.170;5.386;2022-09-13T19:57:13;24.60;43.90
70807;DHT22;58882;52.170;5.386;2022-09-13T20:00:00;24.60;43.00
70807;DHT22;58882;52.170;5.386;2022-09-13T20:02:40;24.60;43.50
70807;DHT22;58882;52.170;5.386;2022-09-13T20:05:35;24.60;43.30
70807;DHT22;58882;52.170;5.386;2022-09-13T20:08:22;24.60;43.10
70807;DHT22;58882;52.170;5.386;2022-09-13T20:11:05;24.60;43.10
70807;DHT22;58882;52.170;5.386;2022-09-13T20:13:53;24.60;43.20
70807;DHT22;58882;52.170;5.386;2022-09-13T20:16:31;24.50;43.10
70807;DHT22;58882;52.170;5.386;2022-09-13T20:19:25;24.50;43.10
70807;DHT22;58882;52.170;5.386;2022-09-13T20:22:18;24.50;43.10
70807;DHT22;58882;52.170;5.386;2022-09-13T20:25:06;24.50;43.10
70807;DHT22;58882;52.170;5.386;2022-09-13T20:27:47;24.50;43.20